Time;durP1;ratioP1;P1;durP2;ratioP2;P2;SDS_P1;SDS_P2;PMS_P1;PMS_P2;Temp;Humidity;BMP_temperature;BMP_pressure;BME280_temperature;BME280_humidity;BME280_pressure;Samples;Min_cycle;Max_cycle;Signal;HPM_P1;HPM_P2
2023/08/26 00:02:14;;;;;;;;;;;20.80;99.90;;;;;;5066991;28;19927;-74
2023/08/26 00:04:41;;;;;;;;;;;20.80;99.90;;;;;;5084143;28;19920;-74
2023/08/26 00:07:09;;;;;;;;;;;20.80;99.90;;;;;;5083294;28;20414;-74
2023/08/26 00:09:36;;;;;;;;;;;20.70;99.90;;;;;;5083741;28;20004;-74
2023/08/26 00:14:55;;;;;;;;;;;20.60;99.90;;;;;;5082319;28;19917;-74
2023/08/26 00:17:21;;;;;;;;;;;20.60;99.90;;;;;;5083783;28;19952;-75
2023/08/26 00:19:50;;;;;;;;;;;20.60;99.90;;;;;;5082000;28;20200;-74
2023/08/26 00:22:17;;;;;;;;;;;20.50;99.90;;;;;;5063770;28;19920;-74
2023/08/26 00:24:44;;;;;;;;;;;20.60;99.90;;;;;;5064039;28;19997;-74
2023/08/26 00:27:10;;;;;;;;;;;20.50;99.90;;;;;;5063983;28;19920;-74
2023/08/26 00:29:37;;;;;;;;;;;20.50;99.90;;;;;;5063384;28;19921;-74
2023/08/26 00:32:05;;;;;;;;;;;20.50;99.90;;;;;;5063845;28;19983;-76
2023/08/26 00:34:32;;;;;;;;;;;20.50;99.90;;;;;;5063268;28;19992;-74
2023/08/26 00:36:58;;;;;;;;;;;20.50;99.90;;;;;;5064046;28;19996;-74
2023/08/26 00:39:25;;;;;;;;;;;20.40;99.90;;;;;;5063228;28;20197;-74
2023/08/26 00:41:52;;;;;;;;;;;20.40;99.90;;;;;;5063651;28;19988;-74
2023/08/26 00:44:18;;;;;;;;;;;20.40;99.90;;;;;;5063800;28;19988;-74
2023/08/26 00:46:45;;;;;;;;;;;20.40;99.90;;;;;;5063357;28;19921;-74
2023/08/26 00:49:13;;;;;;;;;;;20.40;99.90;;;;;;5070086;28;19924;-74
2023/08/26 00:51:40;;;;;;;;;;;20.30;99.90;;;;;;5083805;28;19959;-74
2023/08/26 00:54:08;;;;;;;;;;;20.20;99.90;;;;;;5083764;28;19984;-74
2023/08/26 00:56:35;;;;;;;;;;;20.20;99.90;;;;;;5083739;28;19984;-74
2023/08/26 00:59:01;;;;;;;;;;;20.10;99.90;;;;;;5082889;28;20116;-74
2023/08/26 01:01:28;;;;;;;;;;;20.20;99.90;;;;;;5083694;28;19999;-74
2023/08/26 01:03:55;;;;;;;;;;;20.10;99.90;;;;;;5083725;28;19983;-74
2023/08/26 01:06:23;;;;;;;;;;;20.10;99.90;;;;;;5083287;28;19963;-74
2023/08/26 01:08:50;;;;;;;;;;;20.10;99.90;;;;;;5083014;28;19952;-74
2023/08/26 01:11:36;;;;;;;;;;;20.10;99.90;;;;;;5081089;28;19963;-74
2023/08/26 01:14:14;;;;;;;;;;;20.10;99.90;;;;;;5081297;28;19956;-74
2023/08/26 01:16:41;;;;;;;;;;;20.10;99.90;;;;;;5083786;28;19951;-73
2023/08/26 01:19:10;;;;;;;;;;;20.00;99.90;;;;;;5082718;28;19920;-74
2023/08/26 01:21:40;;;;;;;;;;;20.00;99.90;;;;;;5083358;28;20255;-74
2023/08/26 01:24:09;;;;;;;;;;;20.00;99.90;;;;;;5078136;28;19959;-75
2023/08/26 01:26:36;;;;;;;;;;;20.00;99.90;;;;;;5062938;28;20128;-74
2023/08/26 01:29:03;;;;;;;;;;;19.90;99.90;;;;;;5062719;28;19927;-74
2023/08/26 01:31:31;;;;;;;;;;;19.90;99.90;;;;;;5063459;28;19921;-74
2023/08/26 01:34:01;;;;;;;;;;;20.00;99.90;;;;;;5063478;28;19987;-74
2023/08/26 01:36:28;;;;;;;;;;;19.90;99.90;;;;;;5063326;28;19952;-74
2023/08/26 01:38:57;;;;;;;;;;;19.90;99.90;;;;;;5062609;28;19988;-74
2023/08/26 01:41:25;;;;;;;;;;;19.90;99.90;;;;;;5082066;28;19983;-74
2023/08/26 01:43:52;;;;;;;;;;;19.80;99.90;;;;;;5083076;28;19952;-74
2023/08/26 01:46:19;;;;;;;;;;;19.80;99.90;;;;;;5083401;28;20255;-74
2023/08/26 01:48:45;;;;;;;;;;;19.90;99.90;;;;;;5086349;28;19987;-74
2023/08/26 01:51:12;;;;;;;;;;;19.80;99.90;;;;;;5086628;28;20094;-74
2023/08/26 01:53:39;;;;;;;;;;;19.70;99.90;;;;;;5086559;28;19987;-74
2023/08/26 01:56:06;;;;;;;;;;;19.70;99.90;;;;;;5086502;28;19987;-74
2023/08/26 01:58:34;;;;;;;;;;;19.70;99.90;;;;;;5085929;28;19920;-75
2023/08/26 02:01:04;;;;;;;;;;;19.60;99.90;;;;;;5086412;28;19958;-74
2023/08/26 02:03:31;;;;;;;;;;;19.60;99.90;;;;;;5086591;28;19947;-74
2023/08/26 02:05:57;;;;;;;;;;;19.50;99.90;;;;;;5085949;28;19920;-74
2023/08/26 02:08:24;;;;;;;;;;;19.50;99.90;;;;;;5085965;28;19927;-74
2023/08/26 02:10:53;;;;;;;;;;;19.50;99.90;;;;;;5083091;28;19995;-74
2023/08/26 02:13:20;;;;;;;;;;;19.50;99.90;;;;;;5076241;28;19983;-74
2023/08/26 02:15:48;;;;;;;;;;;19.40;99.90;;;;;;5066011;28;19921;-75
2023/08/26 02:18:14;;;;;;;;;;;19.40;99.90;;;;;;5065701;28;19992;-74
2023/08/26 02:20:42;;;;;;;;;;;19.30;99.90;;;;;;5066054;28;20204;-74
2023/08/26 02:23:08;;;;;;;;;;;19.30;99.90;;;;;;5066315;28;20200;-75
2023/08/26 02:25:35;;;;;;;;;;;19.30;99.90;;;;;;5066071;28;19927;-74
2023/08/26 02:28:02;;;;;;;;;;;19.20;99.90;;;;;;5081179;28;19927;-74
2023/08/26 02:30:29;;;;;;;;;;;19.20;99.90;;;;;;5085781;28;19959;-74
2023/08/26 02:32:57;;;;;;;;;;;19.20;99.90;;;;;;5085805;28;19959;-75
2023/08/26 02:35:24;;;;;;;;;;;19.10;99.90;;;;;;5085971;28;19959;-74
2023/08/26 02:37:51;;;;;;;;;;;19.10;99.90;;;;;;5085411;28;20089;-74
2023/08/26 02:40:17;;;;;;;;;;;19.10;99.90;;;;;;5085925;28;19930;-74
2023/08/26 02:42:44;;;;;;;;;;;19.10;99.90;;;;;;5085957;28;20244;-74
2023/08/26 02:45:11;;;;;;;;;;;19.10;99.90;;;;;;5085530;28;19921;-74
2023/08/26 02:47:37;;;;;;;;;;;19.10;99.90;;;;;;5084920;28;19960;-74
2023/08/26 02:50:06;;;;;;;;;;;19.10;99.90;;;;;;5085694;28;19956;-74
2023/08/26 02:52:33;;;;;;;;;;;19.10;99.90;;;;;;5085744;28;19951;-74
2023/08/26 02:54:59;;;;;;;;;;;19.10;99.90;;;;;;5085645;28;19920;-74
2023/08/26 02:57:26;;;;;;;;;;;19.10;99.90;;;;;;5084759;28;19920;-74
2023/08/26 02:59:52;;;;;;;;;;;19.10;99.90;;;;;;5084608;28;19959;-74
2023/08/26 03:02:24;;;;;;;;;;;19.10;99.90;;;;;;5085503;28;20115;-74
2023/08/26 03:04:51;;;;;;;;;;;19.00;99.90;;;;;;5085406;28;19921;-74
2023/08/26 03:07:19;;;;;;;;;;;19.00;99.90;;;;;;5084931;28;19920;-74
2023/08/26 03:09:45;;;;;;;;;;;19.00;99.90;;;;;;5080766;28;19948;-74
2023/08/26 03:12:19;;;;;;;;;;;18.90;99.90;;;;;;5062554;28;19969;-74
2023/08/26 03:14:51;;;;;;;;;;;18.90;99.90;;;;;;5062858;28;19956;-74
2023/08/26 03:17:18;;;;;;;;;;;18.90;99.90;;;;;;5064636;28;19987;-75
2023/08/26 03:19:45;;;;;;;;;;;18.90;99.90;;;;;;5067821;28;19920;-74
2023/08/26 03:22:11;;;;;;;;;;;18.90;99.90;;;;;;5068768;28;20263;-76
2023/08/26 03:24:40;;;;;;;;;;;18.90;99.90;;;;;;5065130;28;19921;-75
2023/08/26 03:27:06;;;;;;;;;;;19.00;99.90;;;;;;5064994;28;19948;-74
2023/08/26 03:29:33;;;;;;;;;;;19.00;99.90;;;;;;5064318;28;19987;-75
2023/08/26 03:31:59;;;;;;;;;;;19.00;99.90;;;;;;5072787;28;19925;-75
2023/08/26 03:34:26;;;;;;;;;;;19.00;99.90;;;;;;5084893;28;19970;-76
2023/08/26 03:36:53;;;;;;;;;;;19.10;99.90;;;;;;5084433;28;19928;-75
2023/08/26 03:39:19;;;;;;;;;;;19.00;99.90;;;;;;5083827;28;20168;-74
2023/08/26 03:41:47;;;;;;;;;;;19.10;99.90;;;;;;5084746;28;19987;-74
2023/08/26 03:44:14;;;;;;;;;;;19.10;99.90;;;;;;5084600;28;19947;-75
2023/08/26 03:46:40;;;;;;;;;;;19.10;99.90;;;;;;5083935;28;19987;-75
2023/08/26 03:49:07;;;;;;;;;;;19.10;99.90;;;;;;5084005;28;20108;-75
2023/08/26 03:51:34;;;;;;;;;;;19.10;99.90;;;;;;5084629;28;19920;-75
2023/08/26 03:54:00;;;;;;;;;;;19.10;99.90;;;;;;5083927;28;20284;-75
2023/08/26 03:56:28;;;;;;;;;;;19.10;99.90;;;;;;5075210;28;19952;-74
2023/08/26 03:58:57;;;;;;;;;;;19.10;99.90;;;;;;5063431;28;20255;-76
2023/08/26 04:01:23;;;;;;;;;;;19.10;99.90;;;;;;5064434;28;19921;-75
2023/08/26 04:03:51;;;;;;;;;;;19.10;99.90;;;;;;5064460;28;19928;-74
2023/08/26 04:06:17;;;;;;;;;;;19.10;99.90;;;;;;5064315;28;19963;-74
2023/08/26 04:08:44;;;;;;;;;;;19.10;99.90;;;;;;5063518;28;19943;-74
2023/08/26 04:14:26;;;;;;;;;;;19.10;99.90;;;;;;5061487;28;20210;-74
2023/08/26 04:16:52;;;;;;;;;;;19.10;99.90;;;;;;5064112;28;19988;-74
2023/08/26 04:19:19;;;;;;;;;;;19.10;99.90;;;;;;5063245;28;20212;-75
2023/08/26 04:21:46;;;;;;;;;;;19.10;99.90;;;;;;5077176;28;19983;-74
2023/08/26 04:24:12;;;;;;;;;;;19.10;99.90;;;;;;5084169;28;19942;-75
2023/08/26 04:26:39;;;;;;;;;;;19.10;99.90;;;;;;5083919;28;20297;-74
2023/08/26 04:29:06;;;;;;;;;;;19.10;99.90;;;;;;5083151;28;19952;-75
2023/08/26 04:31:34;;;;;;;;;;;19.00;99.90;;;;;;5084008;28;19927;-74
2023/08/26 04:34:00;;;;;;;;;;;19.00;99.90;;;;;;5083778;28;20164;-75
2023/08/26 04:36:27;;;;;;;;;;;19.00;99.90;;;;;;5083963;28;19921;-74
2023/08/26 04:38:54;;;;;;;;;;;19.00;99.90;;;;;;5083355;28;19979;-74
2023/08/26 04:41:20;;;;;;;;;;;19.00;99.90;;;;;;5083930;28;19956;-75
2023/08/26 04:43:47;;;;;;;;;;;19.00;99.90;;;;;;5082848;28;19979;-74
2023/08/26 04:46:13;;;;;;;;;;;19.00;99.90;;;;;;5083373;28;19955;-74
2023/08/26 04:48:41;;;;;;;;;;;19.00;99.90;;;;;;5083287;28;19921;-75
2023/08/26 04:51:08;;;;;;;;;;;19.00;99.90;;;;;;5083690;28;19959;-75
2023/08/26 04:53:35;;;;;;;;;;;19.00;99.90;;;;;;5074523;28;20191;-74
2023/08/26 04:56:01;;;;;;;;;;;19.00;99.90;;;;;;5063649;28;19983;-74
2023/08/26 04:58:28;;;;;;;;;;;19.00;99.90;;;;;;5062915;28;19988;-75
2023/08/26 05:00:55;;;;;;;;;;;19.00;99.90;;;;;;5071182;28;19927;-75
2023/08/26 05:03:21;;;;;;;;;;;19.00;99.90;;;;;;5083745;28;19959;-74
2023/08/26 05:05:49;;;;;;;;;;;19.00;99.90;;;;;;5081434;28;20226;-74
2023/08/26 05:08:16;;;;;;;;;;;19.00;99.90;;;;;;5081247;28;20164;-75
2023/08/26 05:10:42;;;;;;;;;;;19.00;99.90;;;;;;5075806;28;19920;-75
2023/08/26 05:13:09;;;;;;;;;;;19.00;99.90;;;;;;5083322;28;19920;-74
2023/08/26 05:15:36;;;;;;;;;;;19.10;99.90;;;;;;5083475;28;20170;-74
2023/08/26 05:18:03;;;;;;;;;;;19.10;99.90;;;;;;5082714;28;19963;-74
2023/08/26 05:20:30;;;;;;;;;;;19.10;99.90;;;;;;5083499;28;20158;-74
2023/08/26 05:23:08;;;;;;;;;;;19.10;99.90;;;;;;5084142;28;19927;-76
2023/08/26 05:25:35;;;;;;;;;;;19.10;99.90;;;;;;5087415;28;19956;-74
2023/08/26 05:28:04;;;;;;;;;;;19.10;99.90;;;;;;5086526;28;19996;-75
2023/08/26 05:30:30;;;;;;;;;;;19.10;99.90;;;;;;5087147;28;20154;-74
2023/08/26 05:32:57;;;;;;;;;;;19.20;99.90;;;;;;5087214;28;19920;-75
2023/08/26 05:35:44;;;;;;;;;;;19.10;99.90;;;;;;5085586;28;19983;-75
2023/08/26 05:38:12;;;;;;;;;;;19.20;99.90;;;;;;5086446;28;19956;-75
2023/08/26 05:40:38;;;;;;;;;;;19.20;99.90;;;;;;5087111;28;19963;-75
2023/08/26 05:43:05;;;;;;;;;;;19.20;99.90;;;;;;5086866;28;19963;-75
2023/08/26 05:45:33;;;;;;;;;;;19.20;99.90;;;;;;5083484;28;19983;-75
2023/08/26 05:47:59;;;;;;;;;;;19.30;99.90;;;;;;5085921;28;19964;-70
2023/08/26 05:50:26;;;;;;;;;;;19.30;99.90;;;;;;5086748;28;19943;-70
2023/08/26 05:52:53;;;;;;;;;;;19.30;99.90;;;;;;5086419;28;19983;-72
2023/08/26 05:55:21;;;;;;;;;;;19.40;99.90;;;;;;5086683;28;19927;-74
2023/08/26 05:57:47;;;;;;;;;;;19.40;99.90;;;;;;5086130;28;19987;-74
2023/08/26 06:00:15;;;;;;;;;;;19.50;99.90;;;;;;5086332;28;19974;-75
2023/08/26 06:02:41;;;;;;;;;;;19.50;99.90;;;;;;5066550;28;19956;-75
2023/08/26 06:05:08;;;;;;;;;;;19.60;99.90;;;;;;5066202;28;20259;-74
2023/08/26 06:07:35;;;;;;;;;;;19.60;99.90;;;;;;5065593;28;20004;-75
2023/08/26 06:10:01;;;;;;;;;;;19.60;99.90;;;;;;5081698;28;19921;-74
2023/08/26 06:12:29;;;;;;;;;;;19.60;99.90;;;;;;5075121;28;19960;-74
2023/08/26 06:14:56;;;;;;;;;;;19.60;99.90;;;;;;5067399;28;19928;-74
2023/08/26 06:17:23;;;;;;;;;;;19.60;99.90;;;;;;5070725;28;20337;-73
2023/08/26 06:19:49;;;;;;;;;;;19.60;99.90;;;;;;5085920;28;20123;-74
2023/08/26 06:22:16;;;;;;;;;;;19.60;99.90;;;;;;5069045;28;19929;-75
2023/08/26 06:24:43;;;;;;;;;;;19.60;99.90;;;;;;5065853;28;19920;-74
2023/08/26 06:27:15;;;;;;;;;;;19.50;99.90;;;;;;5063673;28;19927;-74
2023/08/26 06:29:45;;;;;;;;;;;19.50;99.90;;;;;;5066297;28;19920;-74
2023/08/26 06:32:12;;;;;;;;;;;19.50;99.90;;;;;;5065755;28;19921;-73
2023/08/26 06:34:39;;;;;;;;;;;19.60;99.90;;;;;;5082864;28;19927;-74
2023/08/26 06:37:06;;;;;;;;;;;19.60;99.90;;;;;;5085719;28;19920;-73
2023/08/26 06:39:32;;;;;;;;;;;19.60;99.90;;;;;;5085373;28;19927;-74
2023/08/26 06:41:59;;;;;;;;;;;19.60;99.90;;;;;;5074527;28;19921;-74
2023/08/26 06:44:25;;;;;;;;;;;19.60;99.90;;;;;;5065901;28;19935;-74
2023/08/26 06:46:53;;;;;;;;;;;19.60;99.90;;;;;;5065765;28;20023;-74
2023/08/26 06:49:20;;;;;;;;;;;19.60;99.90;;;;;;5064675;28;20255;-74
2023/08/26 06:51:47;;;;;;;;;;;19.60;99.90;;;;;;5065667;28;19990;-74
2023/08/26 06:54:13;;;;;;;;;;;19.60;99.90;;;;;;5072540;28;19960;-73
2023/08/26 06:56:40;;;;;;;;;;;19.70;99.90;;;;;;5085432;28;19983;-74
2023/08/26 06:59:06;;;;;;;;;;;19.70;99.90;;;;;;5084717;28;20173;-74
2023/08/26 07:01:34;;;;;;;;;;;19.70;99.90;;;;;;5085596;28;19927;-74
2023/08/26 07:04:05;;;;;;;;;;;19.70;99.90;;;;;;5085591;28;19978;-74
2023/08/26 07:06:38;;;;;;;;;;;19.70;99.90;;;;;;5082435;28;20235;-74
2023/08/26 07:09:05;;;;;;;;;;;19.80;99.90;;;;;;5066062;28;19921;-73
2023/08/26 07:11:32;;;;;;;;;;;19.80;99.90;;;;;;5070347;28;19996;-73
2023/08/26 07:13:59;;;;;;;;;;;19.80;99.90;;;;;;5070581;28;19963;-74
2023/08/26 07:16:25;;;;;;;;;;;19.90;99.90;;;;;;5065277;28;19963;-73
2023/08/26 07:18:52;;;;;;;;;;;19.90;99.90;;;;;;5064529;28;19991;-74
2023/08/26 07:21:20;;;;;;;;;;;19.90;99.90;;;;;;5064938;28;20231;-73
2023/08/26 07:24:15;;;;;;;;;;;20.00;99.90;;;;;;5063092;28;19952;-74
2023/08/26 07:26:41;;;;;;;;;;;20.00;99.90;;;;;;5064678;28;19921;-74
2023/08/26 07:29:08;;;;;;;;;;;20.00;99.90;;;;;;5064335;28;19964;-75
2023/08/26 07:31:35;;;;;;;;;;;20.10;99.90;;;;;;5065022;28;19920;-75
2023/08/26 07:37:06;;;;;;;;;;;20.20;99.90;;;;;;5060928;28;19972;-75
2023/08/26 07:39:33;;;;;;;;;;;20.30;99.90;;;;;;5064009;28;19959;-75
2023/08/26 07:41:59;;;;;;;;;;;20.30;99.90;;;;;;5064860;28;19928;-74
2023/08/26 07:44:26;;;;;;;;;;;20.30;99.90;;;;;;5064257;28;20007;-74
2023/08/26 07:46:53;;;;;;;;;;;20.30;99.90;;;;;;5064591;28;19921;-75
2023/08/26 07:49:19;;;;;;;;;;;20.30;99.90;;;;;;5063676;28;19921;-75
2023/08/26 07:51:46;;;;;;;;;;;20.40;99.90;;;;;;5064682;28;19963;-74
2023/08/26 07:54:14;;;;;;;;;;;20.50;99.90;;;;;;5064550;28;20284;-74
2023/08/26 07:56:41;;;;;;;;;;;20.50;99.90;;;;;;5064172;28;19963;-73
2023/08/26 07:59:07;;;;;;;;;;;20.50;99.90;;;;;;5063896;28;19921;-75
2023/08/26 08:01:34;;;;;;;;;;;20.50;99.90;;;;;;5064237;28;20175;-74
2023/08/26 08:04:00;;;;;;;;;;;20.60;99.90;;;;;;5064471;28;19956;-74
2023/08/26 08:06:27;;;;;;;;;;;20.60;99.90;;;;;;5064424;28;19984;-74
2023/08/26 08:08:53;;;;;;;;;;;20.70;99.90;;;;;;5063753;28;20204;-75
2023/08/26 08:11:21;;;;;;;;;;;20.70;99.90;;;;;;5064372;28;19984;-74
2023/08/26 08:13:48;;;;;;;;;;;20.80;99.90;;;;;;5064305;28;19956;-74
2023/08/26 08:16:15;;;;;;;;;;;20.90;99.90;;;;;;5063801;28;19963;-74
2023/08/26 08:18:41;;;;;;;;;;;21.00;99.90;;;;;;5063467;28;19920;-75
2023/08/26 08:21:09;;;;;;;;;;;21.00;99.90;;;;;;5064233;28;19988;-75
2023/08/26 08:23:35;;;;;;;;;;;21.10;99.90;;;;;;5063786;28;20253;-73
2023/08/26 08:26:02;;;;;;;;;;;21.10;99.90;;;;;;5063966;28;19921;-75
2023/08/26 08:28:30;;;;;;;;;;;21.20;99.90;;;;;;5063017;28;19996;-74
2023/08/26 08:30:56;;;;;;;;;;;21.20;99.90;;;;;;5063970;28;19952;-74
2023/08/26 08:33:33;;;;;;;;;;;21.20;99.90;;;;;;5061063;28;19924;-74
2023/08/26 08:36:00;;;;;;;;;;;21.10;99.90;;;;;;5063705;28;19925;-74
2023/08/26 08:38:26;;;;;;;;;;;21.20;99.90;;;;;;5063391;28;20151;-74
2023/08/26 08:40:53;;;;;;;;;;;21.20;99.90;;;;;;5063926;28;19943;-74
2023/08/26 08:43:21;;;;;;;;;;;21.20;99.90;;;;;;5063897;28;19924;-75
2023/08/26 08:45:50;;;;;;;;;;;21.20;99.90;;;;;;5063533;28;20013;-74
2023/08/26 08:48:18;;;;;;;;;;;21.20;99.90;;;;;;5063089;28;19951;-74
2023/08/26 08:50:45;;;;;;;;;;;21.20;99.90;;;;;;5063809;28;19987;-76
2023/08/26 08:53:12;;;;;;;;;;;21.30;99.90;;;;;;5063894;28;20121;-74
2023/08/26 08:55:39;;;;;;;;;;;21.30;99.90;;;;;;5063713;28;19948;-75
2023/08/26 08:58:05;;;;;;;;;;;21.50;99.90;;;;;;5066689;28;19959;-74
2023/08/26 09:00:32;;;;;;;;;;;21.60;99.90;;;;;;5067443;28;19921;-74
2023/08/26 09:03:01;;;;;;;;;;;21.70;99.90;;;;;;5067472;28;20283;-75
2023/08/26 09:05:28;;;;;;;;;;;21.80;99.90;;;;;;5067434;28;20209;-74
2023/08/26 09:07:55;;;;;;;;;;;21.80;99.90;;;;;;5066729;28;19988;-75
2023/08/26 09:10:22;;;;;;;;;;;21.80;99.90;;;;;;5067595;28;19978;-75
2023/08/26 09:12:48;;;;;;;;;;;21.90;99.90;;;;;;5067706;28;19921;-75
2023/08/26 09:15:15;;;;;;;;;;;21.90;99.90;;;;;;5067538;28;19978;-75
2023/08/26 09:17:44;;;;;;;;;;;21.90;99.90;;;;;;5066882;28;19927;-74
2023/08/26 09:20:12;;;;;;;;;;;21.80;99.90;;;;;;5067420;28;19983;-74
2023/08/26 09:22:39;;;;;;;;;;;21.90;99.90;;;;;;5067463;28;19956;-74
2023/08/26 09:25:06;;;;;;;;;;;21.80;99.90;;;;;;5067258;28;19928;-75
2023/08/26 09:27:34;;;;;;;;;;;21.80;99.90;;;;;;5066741;28;19980;-75
2023/08/26 09:30:02;;;;;;;;;;;21.80;99.90;;;;;;5067037;28;19988;-74
2023/08/26 09:32:32;;;;;;;;;;;21.80;99.90;;;;;;5067346;28;20208;-76
2023/08/26 09:35:10;;;;;;;;;;;21.90;99.90;;;;;;5063296;28;19932;-75
2023/08/26 09:37:38;;;;;;;;;;;21.90;99.90;;;;;;5065717;28;19928;-74
2023/08/26 09:40:05;;;;;;;;;;;21.80;99.90;;;;;;5067192;28;19975;-74
2023/08/26 09:42:32;;;;;;;;;;;21.90;99.90;;;;;;5067124;28;20294;-75
2023/08/26 09:44:59;;;;;;;;;;;21.90;99.90;;;;;;5066742;28;19935;-74
2023/08/26 09:47:28;;;;;;;;;;;21.90;99.90;;;;;;5066666;28;19921;-74
2023/08/26 09:49:54;;;;;;;;;;;21.90;99.90;;;;;;5066639;28;19984;-75
2023/08/26 09:52:21;;;;;;;;;;;22.00;99.90;;;;;;5066975;28;19920;-75
2023/08/26 09:54:49;;;;;;;;;;;22.10;99.90;;;;;;5066483;28;19988;-75
2023/08/26 09:57:16;;;;;;;;;;;22.30;99.90;;;;;;5066129;28;19920;-76
2023/08/26 09:59:43;;;;;;;;;;;22.40;99.90;;;;;;5066280;28;20156;-75
2023/08/26 10:02:17;;;;;;;;;;;22.50;99.90;;;;;;5066713;28;20162;-75
2023/08/26 10:04:45;;;;;;;;;;;22.50;99.90;;;;;;5066439;28;19956;-75
2023/08/26 10:07:12;;;;;;;;;;;22.60;99.90;;;;;;5066223;28;20223;-75
2023/08/26 10:09:40;;;;;;;;;;;22.60;99.90;;;;;;5065880;28;19980;-76
2023/08/26 10:12:11;;;;;;;;;;;22.50;99.90;;;;;;5066287;28;19984;-75
2023/08/26 10:14:40;;;;;;;;;;;22.50;99.90;;;;;;5066523;28;19983;-75
2023/08/26 10:17:08;;;;;;;;;;;22.60;99.90;;;;;;5066449;28;19921;-75
2023/08/26 10:19:35;;;;;;;;;;;22.70;99.90;;;;;;5065763;28;19943;-75
2023/08/26 10:22:02;;;;;;;;;;;22.80;99.90;;;;;;5066142;28;19956;-75
2023/08/26 10:24:29;;;;;;;;;;;22.90;99.90;;;;;;5066117;28;20261;-76
2023/08/26 10:26:55;;;;;;;;;;;22.90;99.90;;;;;;5066091;28;19967;-74
2023/08/26 10:29:24;;;;;;;;;;;23.00;99.90;;;;;;5065482;28;19920;-75
2023/08/26 10:31:52;;;;;;;;;;;23.00;99.90;;;;;;5065965;28;19928;-74
2023/08/26 10:34:36;;;;;;;;;;;23.00;99.90;;;;;;5063675;28;19991;-75
2023/08/26 10:37:28;;;;;;;;;;;23.10;99.90;;;;;;5063576;28;19921;-74
2023/08/26 10:39:55;;;;;;;;;;;23.10;99.90;;;;;;5065715;28;19921;-75
2023/08/26 10:42:22;;;;;;;;;;;23.10;99.90;;;;;;5065930;28;19943;-76
2023/08/26 10:44:54;;;;;;;;;;;23.20;99.90;;;;;;5065655;28;19956;-75
2023/08/26 10:47:33;;;;;;;;;;;23.30;99.90;;;;;;5065472;28;19984;-74
2023/08/26 10:50:13;;;;;;;;;;;23.40;99.90;;;;;;5065669;28;20007;-75
2023/08/26 10:52:42;;;;;;;;;;;23.60;99.90;;;;;;5065617;28;20280;-76
2023/08/26 10:55:12;;;;;;;;;;;23.70;99.90;;;;;;5065630;28;19921;-74
2023/08/26 10:57:43;;;;;;;;;;;23.80;99.90;;;;;;5065194;28;19984;-75
2023/08/26 11:00:12;;;;;;;;;;;23.90;99.90;;;;;;5065339;28;19967;-76
2023/08/26 11:02:39;;;;;;;;;;;23.90;99.90;;;;;;5065560;28;19920;-75
2023/08/26 11:05:07;;;;;;;;;;;23.80;99.90;;;;;;5065100;28;19956;-74
2023/08/26 11:07:33;;;;;;;;;;;23.80;99.90;;;;;;5064951;28;19963;-75
2023/08/26 11:10:00;;;;;;;;;;;23.80;99.90;;;;;;5065192;28;19996;-76
2023/08/26 11:12:26;;;;;;;;;;;23.90;99.90;;;;;;5065428;28;19952;-75
2023/08/26 11:14:53;;;;;;;;;;;23.80;99.90;;;;;;5064927;28;19917;-74
2023/08/26 11:17:21;;;;;;;;;;;23.80;99.90;;;;;;5064566;28;19928;-75
2023/08/26 11:19:47;;;;;;;;;;;23.80;99.90;;;;;;5064164;28;19956;-74
2023/08/26 11:22:15;;;;;;;;;;;24.00;99.90;;;;;;5065252;28;19956;-74
2023/08/26 11:24:46;;;;;;;;;;;24.00;99.90;;;;;;5065174;28;19920;-75
2023/08/26 11:27:13;;;;;;;;;;;24.10;99.90;;;;;;5065173;28;20181;-75
2023/08/26 11:29:39;;;;;;;;;;;24.10;99.90;;;;;;5064498;28;19928;-75
2023/08/26 11:32:07;;;;;;;;;;;24.10;99.90;;;;;;5064871;28;20181;-74
2023/08/26 11:34:35;;;;;;;;;;;24.10;99.90;;;;;;5061784;28;19988;-74
2023/08/26 11:37:19;;;;;;;;;;;24.10;99.90;;;;;;5062456;28;19984;-75
2023/08/26 11:39:45;;;;;;;;;;;24.20;99.90;;;;;;5064452;28;20093;-76
2023/08/26 11:42:32;;;;;;;;;;;24.20;99.90;;;;;;5063387;28;20120;-75
2023/08/26 11:44:59;;;;;;;;;;;24.20;99.90;;;;;;5064479;28;19955;-75
2023/08/26 11:47:26;;;;;;;;;;;24.40;99.90;;;;;;5064401;28;19956;-75
2023/08/26 11:49:56;;;;;;;;;;;24.50;99.90;;;;;;5064445;28;20000;-75
2023/08/26 11:52:41;;;;;;;;;;;24.50;99.90;;;;;;5062879;28;19921;-75
2023/08/26 11:55:08;;;;;;;;;;;24.40;99.90;;;;;;5064401;28;20227;-75
2023/08/26 11:57:36;;;;;;;;;;;24.30;99.90;;;;;;5064108;28;20019;-75
2023/08/26 12:00:06;;;;;;;;;;;24.30;99.90;;;;;;5064198;28;19920;-75
2023/08/26 12:02:33;;;;;;;;;;;24.20;99.90;;;;;;5064291;28;19921;-75
2023/08/26 12:05:01;;;;;;;;;;;24.10;99.90;;;;;;5064026;28;19959;-76
2023/08/26 12:07:29;;;;;;;;;;;24.10;99.90;;;;;;5063941;28;19967;-74
2023/08/26 12:09:56;;;;;;;;;;;24.00;99.90;;;;;;5063881;28;19920;-75
2023/08/26 12:12:24;;;;;;;;;;;24.00;99.90;;;;;;5064233;28;19966;-77
2023/08/26 12:14:51;;;;;;;;;;;23.90;99.90;;;;;;5063884;28;19920;-75
2023/08/26 12:17:18;;;;;;;;;;;23.90;99.90;;;;;;5063752;28;19963;-75
2023/08/26 12:19:45;;;;;;;;;;;23.80;99.90;;;;;;5063641;28;20172;-75
2023/08/26 12:22:13;;;;;;;;;;;23.80;99.90;;;;;;5064228;28;19921;-75
2023/08/26 12:24:40;;;;;;;;;;;23.80;99.90;;;;;;5064115;28;19987;-75
2023/08/26 12:27:09;;;;;;;;;;;23.70;99.90;;;;;;5063872;28;20260;-75
2023/08/26 12:29:36;;;;;;;;;;;23.60;99.90;;;;;;5063094;28;19967;-75
2023/08/26 12:32:04;;;;;;;;;;;23.70;99.90;;;;;;5063230;28;19921;-75
2023/08/26 12:37:35;;;;;;;;;;;23.60;99.90;;;;;;5063166;28;19915;-75
2023/08/26 12:40:04;;;;;;;;;;;23.70;99.90;;;;;;5064044;28;19968;-74
2023/08/26 12:42:31;;;;;;;;;;;23.90;99.90;;;;;;5063603;28;19920;-77
2023/08/26 12:44:58;;;;;;;;;;;24.10;99.90;;;;;;5063579;28;19928;-77
2023/08/26 12:47:24;;;;;;;;;;;24.20;99.90;;;;;;5063354;28;20058;-74
2023/08/26 12:49:51;;;;;;;;;;;24.20;99.90;;;;;;5063628;28;19928;-74
2023/08/26 12:52:27;;;;;;;;;;;24.30;99.90;;;;;;5062266;28;19991;-75
2023/08/26 12:54:55;;;;;;;;;;;24.30;99.90;;;;;;5063532;28;19921;-74
2023/08/26 12:57:22;;;;;;;;;;;24.30;99.90;;;;;;5062983;28;19959;-78
2023/08/26 12:59:48;;;;;;;;;;;24.30;99.90;;;;;;5063288;28;19921;-74
2023/08/26 13:02:15;;;;;;;;;;;24.10;99.90;;;;;;5063434;28;19996;-77
2023/08/26 13:04:42;;;;;;;;;;;24.00;99.90;;;;;;5063640;28;20170;-77
2023/08/26 13:07:09;;;;;;;;;;;23.80;99.90;;;;;;5063414;28;20231;-77
2023/08/26 13:09:36;;;;;;;;;;;23.70;99.90;;;;;;5062894;28;20163;-74
2023/08/26 13:12:04;;;;;;;;;;;23.60;99.90;;;;;;5063739;28;19921;-74
2023/08/26 13:14:31;;;;;;;;;;;23.60;99.90;;;;;;5063422;28;20227;-74
2023/08/26 13:16:57;;;;;;;;;;;23.50;99.90;;;;;;5063532;28;19963;-74
2023/08/26 13:19:24;;;;;;;;;;;23.50;99.90;;;;;;5062948;28;19928;-74
2023/08/26 13:21:51;;;;;;;;;;;23.40;99.90;;;;;;5063664;28;19920;-74
2023/08/26 13:24:18;;;;;;;;;;;23.30;99.90;;;;;;5063485;28;19959;-74
2023/08/26 13:26:45;;;;;;;;;;;23.30;99.90;;;;;;5063439;28;20136;-74
2023/08/26 13:29:13;;;;;;;;;;;23.30;99.90;;;;;;5062850;28;19952;-74
2023/08/26 13:31:39;;;;;;;;;;;23.20;99.90;;;;;;5063320;28;19960;-77
2023/08/26 13:34:17;;;;;;;;;;;23.20;99.90;;;;;;5060816;28;20222;-74
2023/08/26 13:36:44;;;;;;;;;;;23.10;99.90;;;;;;5063068;28;19948;-77
2023/08/26 13:42:30;;;;;;;;;;;22.90;99.90;;;;;;5063672;28;20307;-77
2023/08/26 13:44:58;;;;;;;;;;;22.90;99.90;;;;;;5066999;28;19984;-77
2023/08/26 13:47:25;;;;;;;;;;;22.80;99.90;;;;;;5066538;28;19921;-77
2023/08/26 13:49:52;;;;;;;;;;;22.70;99.90;;;;;;5066484;28;19920;-77
2023/08/26 13:52:23;;;;;;;;;;;22.60;99.90;;;;;;5065814;28;19960;-77
2023/08/26 13:54:50;;;;;;;;;;;22.50;99.90;;;;;;5066403;28;19921;-77
2023/08/26 13:57:17;;;;;;;;;;;22.50;99.90;;;;;;5066354;28;19921;-77
2023/08/26 13:59:43;;;;;;;;;;;22.40;99.90;;;;;;5066283;28;19925;-77
2023/08/26 14:02:11;;;;;;;;;;;22.40;99.90;;;;;;5066729;28;19920;-77
2023/08/26 14:04:38;;;;;;;;;;;22.30;99.90;;;;;;5066793;28;19921;-77
2023/08/26 14:07:12;;;;;;;;;;;22.20;99.90;;;;;;5064249;28;19921;-74
2023/08/26 14:09:38;;;;;;;;;;;22.20;99.90;;;;;;5065570;28;19984;-77
2023/08/26 14:12:05;;;;;;;;;;;22.10;99.90;;;;;;5066601;28;19921;-74
2023/08/26 14:14:32;;;;;;;;;;;22.00;99.90;;;;;;5066549;28;19991;-74
2023/08/26 14:17:15;;;;;;;;;;;22.00;99.90;;;;;;5065254;28;19920;-77
2023/08/26 14:20:08;;;;;;;;;;;21.90;99.90;;;;;;5064129;28;19983;-77
2023/08/26 14:22:34;;;;;;;;;;;21.80;99.90;;;;;;5066431;28;19921;-77
2023/08/26 14:25:01;;;;;;;;;;;21.60;99.90;;;;;;5065921;28;19921;-77
2023/08/26 14:27:28;;;;;;;;;;;21.60;99.90;;;;;;5081270;28;20212;-77
2023/08/26 14:30:20;;;;;;;;;;;21.60;99.90;;;;;;5083448;28;19920;-77
2023/08/26 14:32:49;;;;;;;;;;;21.50;99.90;;;;;;5084264;28;19929;-76
2023/08/26 14:35:16;;;;;;;;;;;21.50;99.90;;;;;;5086093;28;19920;-77
2023/08/26 14:37:42;;;;;;;;;;;21.40;99.90;;;;;;5085145;28;19928;-76